Etusivu
METAR-TAF:

METAR-TAF

Lentoasemat :

Kittilä, Suomi

Kittilän lentoasema

Leveyspiiri: 67-42N, Pituuspiiri: 024-51E, korkeus merenpinnasta: 196 m

Tämänhetkinen sää

Tämä raportti tehtiin 18 minuuttia sitten, kello 07.20 UTC
tyyntä
Lämpötila -21°C
Kosteus 84%
Ilmanpaine 997 hPa
Näkyvyys 10 km tai enemmän
ei pilviä alle 1500 m:ssä eikä cumulonimbus-pilviä

METAR: EFKT 260720Z 00000KT CAVOK M21/M23 Q0997

Aika: 09:38 (07:38 UTC)

Sääennuste

Tämä raportti tehtiin 2 tuntia ja 11 minuuttia sitten, kello 05.27 UTC
Ennuste voimassa 26. päivästä klo 06 UTC - 26. päivään klo 15 UTC
Tuuli 3 kn lännestä/luoteesta
Näkyvyys 10 km tai enemmän
ei pilviä alle 1500 m:ssä eikä cumulonimbus-pilviä
Ajoittain
26. päivästä klo 08 UTC - 26. päivään klo 11 UTC
Näkyvyys: 5000 m

TAF: EFKT 260527Z 2606/2615 29003KT CAVOK TEMPO 2608/2611 5000

Säähavainnot ja -ennusteet yli 4000 lentoasemalta (METAR- ja TAF-raportit).

Käytössä olevat sääasemat on merkitty karttaan keltaisilla ja punaisilla pisteillä.

Aseta hiiri pisteen päälle nähdäksesi sääaseman nimen.

Klikkaa sitten nähdäksesi säähavainnot ja -ennusteet.

Kartan vaihtaminen: klikkaa mustalla rastilla varustettuja vihreitä pisteitä, niin voit zoomata sisään; viivalla varustettua vihreää pistettä, niin voit zoomata ulos tai vihreitä nuolia, niin pääset viereisille kartoille.


METAR-TAF: